sensor_id;sensor_type;location;lat;lon;timestamp;pressure;altitude;pressure_sealevel;temperature;humidity
59170;BME280;52474;52.236;5.114;2023-05-29T00:00:12;102506.41;;;10.35;100.00
59170;BME280;52474;52.236;5.114;2023-05-29T00:02:52;102499.59;;;10.30;100.00
59170;BME280;52474;52.236;5.114;2023-05-29T00:05:17;102497.97;;;10.28;100.00
59170;BME280;52474;52.236;5.114;2023-05-29T00:07:43;102475.00;;;10.13;100.00
59170;BME280;52474;52.236;5.114;2023-05-29T00:10:11;102493.44;;;10.14;100.00
59170;BME280;52474;52.236;5.114;2023-05-29T00:12:38;102506.94;;;10.09;100.00
59170;BME280;52474;52.236;5.114;2023-05-29T00:15:04;102506.25;;;10.06;100.00
59170;BME280;52474;52.236;5.114;2023-05-29T00:17:30;102498.41;;;10.04;100.00
59170;BME280;52474;52.236;5.114;2023-05-29T00:20:01;102503.72;;;10.04;100.00
59170;BME280;52474;52.236;5.114;2023-05-29T00:22:28;102495.19;;;9.99;100.00
59170;BME280;52474;52.236;5.114;2023-05-29T00:24:54;102493.72;;;9.94;100.00
59170;BME280;52474;52.236;5.114;2023-05-29T00:27:20;102482.78;;;9.84;100.00
59170;BME280;52474;52.236;5.114;2023-05-29T00:29:46;102506.94;;;9.94;100.00
59170;BME280;52474;52.236;5.114;2023-05-29T00:32:11;102488.66;;;9.89;100.00
59170;BME280;52474;52.236;5.114;2023-05-29T00:34:37;102510.78;;;9.88;100.00
59170;BME280;52474;52.236;5.114;2023-05-29T00:37:03;102508.47;;;9.82;100.00
59170;BME280;52474;52.236;5.114;2023-05-29T00:39:29;102473.06;;;9.53;100.00
59170;BME280;52474;52.236;5.114;2023-05-29T00:41:56;102512.25;;;9.78;100.00
59170;BME280;52474;52.236;5.114;2023-05-29T00:44:22;102518.38;;;9.78;100.00
59170;BME280;52474;52.236;5.114;2023-05-29T00:46:51;102479.97;;;9.55;100.00
59170;BME280;52474;52.236;5.114;2023-05-29T00:49:20;102519.34;;;9.77;100.00
59170;BME280;52474;52.236;5.114;2023-05-29T00:51:47;102501.88;;;9.57;100.00
59170;BME280;52474;52.236;5.114;2023-05-29T00:54:18;102528.44;;;9.72;100.00
59170;BME280;52474;52.236;5.114;2023-05-29T00:56:46;102501.75;;;9.60;100.00
59170;BME280;52474;52.236;5.114;2023-05-29T00:59:12;102524.19;;;9.69;100.00
59170;BME280;52474;52.236;5.114;2023-05-29T01:01:39;102532.38;;;9.64;100.00
59170;BME280;52474;52.236;5.114;2023-05-29T01:04:05;102516.00;;;9.58;100.00
59170;BME280;52474;52.236;5.114;2023-05-29T01:06:35;102523.41;;;9.67;100.00
59170;BME280;52474;52.236;5.114;2023-05-29T01:09:01;102522.66;;;9.65;100.00
59170;BME280;52474;52.236;5.114;2023-05-29T01:11:50;102534.00;;;9.67;100.00
59170;BME280;52474;52.236;5.114;2023-05-29T01:14:36;102529.28;;;9.56;100.00
59170;BME280;52474;52.236;5.114;2023-05-29T01:17:28;102533.38;;;9.62;100.00
59170;BME280;52474;52.236;5.114;2023-05-29T01:23:10;102550.53;;;9.55;100.00
59170;BME280;52474;52.236;5.114;2023-05-29T01:26:03;102548.16;;;9.50;100.00
59170;BME280;52474;52.236;5.114;2023-05-29T01:28:39;102551.81;;;9.48;100.00
59170;BME280;52474;52.236;5.114;2023-05-29T01:31:07;102551.09;;;9.44;100.00
59170;BME280;52474;52.236;5.114;2023-05-29T01:33:38;102556.81;;;9.52;100.00
59170;BME280;52474;52.236;5.114;2023-05-29T01:36:07;102545.38;;;9.36;100.00
59170;BME280;52474;52.236;5.114;2023-05-29T01:38:34;102560.13;;;9.40;100.00
59170;BME280;52474;52.236;5.114;2023-05-29T01:41:00;102565.34;;;9.41;100.00
59170;BME280;52474;52.236;5.114;2023-05-29T01:43:26;102559.03;;;9.44;100.00
59170;BME280;52474;52.236;5.114;2023-05-29T01:45:52;102562.69;;;9.41;100.00
59170;BME280;52474;52.236;5.114;2023-05-29T01:48:18;102569.25;;;9.34;100.00
59170;BME280;52474;52.236;5.114;2023-05-29T01:50:45;102560.09;;;9.24;100.00
59170;BME280;52474;52.236;5.114;2023-05-29T01:53:11;102571.13;;;9.32;100.00
59170;BME280;52474;52.236;5.114;2023-05-29T01:55:37;102564.56;;;9.39;100.00
59170;BME280;52474;52.236;5.114;2023-05-29T01:58:03;102558.13;;;9.28;100.00
59170;BME280;52474;52.236;5.114;2023-05-29T02:00:30;102572.75;;;9.35;100.00
59170;BME280;52474;52.236;5.114;2023-05-29T02:02:56;102560.09;;;9.24;100.00
59170;BME280;52474;52.236;5.114;2023-05-29T02:05:22;102569.41;;;9.31;100.00
59170;BME280;52474;52.236;5.114;2023-05-29T02:07:48;102586.91;;;9.34;100.00
59170;BME280;52474;52.236;5.114;2023-05-29T02:10:13;102580.91;;;9.30;100.00
59170;BME280;52474;52.236;5.114;2023-05-29T02:12:39;102579.91;;;9.33;100.00
59170;BME280;52474;52.236;5.114;2023-05-29T02:15:05;102567.84;;;9.27;100.00
59170;BME280;52474;52.236;5.114;2023-05-29T02:17:32;102568.25;;;9.19;100.00
59170;BME280;52474;52.236;5.114;2023-05-29T02:19:59;102574.41;;;9.20;100.00
59170;BME280;52474;52.236;5.114;2023-05-29T02:22:26;102558.38;;;9.06;100.00
59170;BME280;52474;52.236;5.114;2023-05-29T02:24:52;102577.44;;;9.12;100.00
59170;BME280;52474;52.236;5.114;2023-05-29T02:27:17;102557.41;;;9.08;100.00
59170;BME280;52474;52.236;5.114;2023-05-29T02:29:43;102575.66;;;9.13;100.00
59170;BME280;52474;52.236;5.114;2023-05-29T02:32:09;102573.00;;;9.13;100.00
59170;BME280;52474;52.236;5.114;2023-05-29T02:34:35;102573.94;;;9.12;100.00
59170;BME280;52474;52.236;5.114;2023-05-29T02:37:01;102545.56;;;8.98;100.00
59170;BME280;52474;52.236;5.114;2023-05-29T02:39:28;102571.38;;;9.10;100.00
59170;BME280;52474;52.236;5.114;2023-05-29T02:41:53;102563.69;;;9.06;100.00
59170;BME280;52474;52.236;5.114;2023-05-29T02:44:20;102570.69;;;9.07;100.00
59170;BME280;52474;52.236;5.114;2023-05-29T02:46:46;102541.09;;;8.82;100.00
59170;BME280;52474;52.236;5.114;2023-05-29T02:49:14;102573.41;;;9.05;100.00
59170;BME280;52474;52.236;5.114;2023-05-29T02:51:40;102562.94;;;9.03;100.00
59170;BME280;52474;52.236;5.114;2023-05-29T02:54:05;102577.91;;;9.03;100.00
59170;BME280;52474;52.236;5.114;2023-05-29T02:56:31;102556.53;;;8.90;100.00
59170;BME280;52474;52.236;5.114;2023-05-29T02:58:57;102586.31;;;8.94;100.00
59170;BME280;52474;52.236;5.114;2023-05-29T03:01:22;102577.44;;;8.95;100.00
59170;BME280;52474;52.236;5.114;2023-05-29T03:03:48;102581.81;;;8.96;100.00
59170;BME280;52474;52.236;5.114;2023-05-29T03:06:14;102584.47;;;8.96;100.00
59170;BME280;52474;52.236;5.114;2023-05-29T03:08:41;102565.19;;;8.76;100.00
59170;BME280;52474;52.236;5.114;2023-05-29T03:11:11;102581.50;;;8.85;100.00
59170;BME280;52474;52.236;5.114;2023-05-29T03:13:37;102580.88;;;8.79;100.00
59170;BME280;52474;52.236;5.114;2023-05-29T03:16:07;102580.72;;;8.82;100.00
59170;BME280;52474;52.236;5.114;2023-05-29T03:18:34;102584.13;;;8.85;100.00
59170;BME280;52474;52.236;5.114;2023-05-29T03:21:01;102569.28;;;8.82;100.00
59170;BME280;52474;52.236;5.114;2023-05-29T03:23:27;102551.56;;;8.67;100.00
59170;BME280;52474;52.236;5.114;2023-05-29T03:25:53;102546.81;;;8.56;100.00
59170;BME280;52474;52.236;5.114;2023-05-29T03:28:19;102581.94;;;8.75;100.00
59170;BME280;52474;52.236;5.114;2023-05-29T03:30:46;102585.75;;;8.70;100.00
59170;BME280;52474;52.236;5.114;2023-05-29T03:33:15;102584.34;;;8.63;100.00
59170;BME280;52474;52.236;5.114;2023-05-29T03:35:56;102590.78;;;8.57;100.00
59170;BME280;52474;52.236;5.114;2023-05-29T03:38:23;102579.44;;;8.55;100.00
59170;BME280;52474;52.236;5.114;2023-05-29T03:40:49;102581.16;;;8.56;100.00
59170;BME280;52474;52.236;5.114;2023-05-29T03:43:15;102578.44;;;8.57;100.00
59170;BME280;52474;52.236;5.114;2023-05-29T03:45:41;102585.56;;;8.55;100.00
59170;BME280;52474;52.236;5.114;2023-05-29T03:48:07;102581.88;;;8.59;100.00
59170;BME280;52474;52.236;5.114;2023-05-29T03:50:32;102582.56;;;8.63;100.00
59170;BME280;52474;52.236;5.114;2023-05-29T03:52:58;102578.38;;;8.59;100.00
59170;BME280;52474;52.236;5.114;2023-05-29T03:55:26;102575.00;;;8.55;100.00
59170;BME280;52474;52.236;5.114;2023-05-29T03:57:52;102582.78;;;8.58;100.00
59170;BME280;52474;52.236;5.114;2023-05-29T04:00:18;102575.00;;;8.55;100.00
59170;BME280;52474;52.236;5.114;2023-05-29T04:02:46;102569.94;;;8.51;100.00
59170;BME280;52474;52.236;5.114;2023-05-29T04:05:12;102597.31;;;8.67;100.00
59170;BME280;52474;52.236;5.114;2023-05-29T04:07:40;102571.69;;;8.52;100.00
59170;BME280;52474;52.236;5.114;2023-05-29T04:10:07;102590.19;;;8.69;100.00
59170;BME280;52474;52.236;5.114;2023-05-29T04:12:33;102586.13;;;8.62;100.00
59170;BME280;52474;52.236;5.114;2023-05-29T04:14:59;102606.66;;;8.74;100.00
59170;BME280;52474;52.236;5.114;2023-05-29T04:17:26;102605.66;;;8.77;100.00
59170;BME280;52474;52.236;5.114;2023-05-29T04:19:51;102540.50;;;8.41;100.00
59170;BME280;52474;52.236;5.114;2023-05-29T04:22:17;102608.47;;;8.91;100.00
59170;BME280;52474;52.236;5.114;2023-05-29T04:24:43;102602.06;;;8.95;100.00
59170;BME280;52474;52.236;5.114;2023-05-29T04:27:09;102574.97;;;8.74;100.00
59170;BME280;52474;52.236;5.114;2023-05-29T04:29:39;102612.41;;;9.00;100.00
59170;BME280;52474;52.236;5.114;2023-05-29T04:32:09;102616.78;;;9.01;100.00
59170;BME280;52474;52.236;5.114;2023-05-29T04:34:38;102593.47;;;8.92;100.00
59170;BME280;52474;52.236;5.114;2023-05-29T04:37:12;102624.22;;;9.10;100.00
59170;BME280;52474;52.236;5.114;2023-05-29T04:39:39;102614.53;;;9.11;100.00
59170;BME280;52474;52.236;5.114;2023-05-29T04:42:06;102621.28;;;9.16;100.00
59170;BME280;52474;52.236;5.114;2023-05-29T04:44:33;102629.00;;;9.21;100.00
59170;BME280;52474;52.236;5.114;2023-05-29T04:46:59;102633.16;;;9.25;100.00
59170;BME280;52474;52.236;5.114;2023-05-29T04:49:29;102612.66;;;9.13;100.00
59170;BME280;52474;52.236;5.114;2023-05-29T04:51:54;102635.50;;;9.31;100.00
59170;BME280;52474;52.236;5.114;2023-05-29T04:54:22;102613.81;;;9.24;100.00
59170;BME280;52474;52.236;5.114;2023-05-29T04:56:51;102612.75;;;9.29;100.00
59170;BME280;52474;52.236;5.114;2023-05-29T04:59:21;102633.09;;;9.44;100.00
59170;BME280;52474;52.236;5.114;2023-05-29T05:01:47;102638.19;;;9.64;100.00
59170;BME280;52474;52.236;5.114;2023-05-29T05:04:13;102641.97;;;9.76;100.00
59170;BME280;52474;52.236;5.114;2023-05-29T05:06:39;102641.41;;;9.87;100.00
59170;BME280;52474;52.236;5.114;2023-05-29T05:09:05;102645.50;;;9.93;100.00
59170;BME280;52474;52.236;5.114;2023-05-29T05:11:31;102611.94;;;9.77;100.00
59170;BME280;52474;52.236;5.114;2023-05-29T05:13:58;102645.97;;;10.17;100.00
59170;BME280;52474;52.236;5.114;2023-05-29T05:16:23;102625.47;;;10.04;100.00
59170;BME280;52474;52.236;5.114;2023-05-29T05:18:49;102629.06;;;10.19;100.00
59170;BME280;52474;52.236;5.114;2023-05-29T05:21:15;102624.63;;;10.20;100.00
59170;BME280;52474;52.236;5.114;2023-05-29T05:23:41;102634.56;;;10.32;100.00
59170;BME280;52474;52.236;5.114;2023-05-29T05:26:09;102637.63;;;10.40;100.00
59170;BME280;52474;52.236;5.114;2023-05-29T05:28:35;102637.97;;;10.50;100.00
59170;BME280;52474;52.236;5.114;2023-05-29T05:31:01;102629.25;;;10.48;100.00
59170;BME280;52474;52.236;5.114;2023-05-29T05:33:30;102639.94;;;10.62;100.00
59170;BME280;52474;52.236;5.114;2023-05-29T05:35:56;102628.47;;;10.62;100.00
59170;BME280;52474;52.236;5.114;2023-05-29T05:38:22;102634.63;;;10.78;100.00
59170;BME280;52474;52.236;5.114;2023-05-29T05:40:47;102618.53;;;10.65;100.00
59170;BME280;52474;52.236;5.114;2023-05-29T05:43:21;102627.59;;;10.77;100.00
59170;BME280;52474;52.236;5.114;2023-05-29T05:46:14;102642.34;;;10.97;100.00
59170;BME280;52474;52.236;5.114;2023-05-29T05:48:41;102640.44;;;11.15;100.00
59170;BME280;52474;52.236;5.114;2023-05-29T05:51:08;102630.84;;;11.12;100.00
59170;BME280;52474;52.236;5.114;2023-05-29T05:53:34;102655.97;;;11.21;100.00
59170;BME280;52474;52.236;5.114;2023-05-29T05:55:59;102641.31;;;11.30;100.00
59170;BME280;52474;52.236;5.114;2023-05-29T05:58:26;102645.75;;;11.29;100.00
59170;BME280;52474;52.236;5.114;2023-05-29T06:00:52;102656.38;;;11.44;100.00
59170;BME280;52474;52.236;5.114;2023-05-29T06:03:18;102658.22;;;11.57;100.00
59170;BME280;52474;52.236;5.114;2023-05-29T06:05:56;102636.31;;;11.82;100.00
59170;BME280;52474;52.236;5.114;2023-05-29T06:08:22;102656.75;;;12.38;100.00
59170;BME280;52474;52.236;5.114;2023-05-29T06:10:48;102660.97;;;13.74;100.00
59170;BME280;52474;52.236;5.114;2023-05-29T06:13:15;102654.97;;;15.87;100.00
59170;BME280;52474;52.236;5.114;2023-05-29T06:15:47;102659.84;;;17.24;100.00
59170;BME280;52474;52.236;5.114;2023-05-29T06:18:13;102655.31;;;18.48;100.00
59170;BME280;52474;52.236;5.114;2023-05-29T06:20:39;102644.72;;;19.24;100.00
59170;BME280;52474;52.236;5.114;2023-05-29T06:23:06;102662.06;;;17.19;100.00
59170;BME280;52474;52.236;5.114;2023-05-29T06:25:32;102657.44;;;18.03;100.00
59170;BME280;52474;52.236;5.114;2023-05-29T06:28:01;102637.59;;;18.85;100.00
59170;BME280;52474;52.236;5.114;2023-05-29T06:30:27;102658.41;;;17.93;100.00
59170;BME280;52474;52.236;5.114;2023-05-29T06:32:53;102660.69;;;18.57;100.00
59170;BME280;52474;52.236;5.114;2023-05-29T06:35:24;102659.72;;;17.77;100.00
59170;BME280;52474;52.236;5.114;2023-05-29T06:37:49;102663.88;;;19.58;100.00
59170;BME280;52474;52.236;5.114;2023-05-29T06:40:24;102670.69;;;21.09;100.00
59170;BME280;52474;52.236;5.114;2023-05-29T06:42:50;102685.41;;;20.78;100.00
59170;BME280;52474;52.236;5.114;2023-05-29T06:45:16;102673.75;;;21.58;100.00
59170;BME280;52474;52.236;5.114;2023-05-29T06:47:42;102673.50;;;22.54;100.00
59170;BME280;52474;52.236;5.114;2023-05-29T06:50:09;102670.63;;;20.83;100.00
59170;BME280;52474;52.236;5.114;2023-05-29T06:52:36;102676.25;;;21.51;100.00
59170;BME280;52474;52.236;5.114;2023-05-29T06:55:25;102688.97;;;21.23;100.00
59170;BME280;52474;52.236;5.114;2023-05-29T06:57:53;102681.41;;;21.71;100.00
59170;BME280;52474;52.236;5.114;2023-05-29T07:00:20;102681.00;;;20.32;100.00
59170;BME280;52474;52.236;5.114;2023-05-29T07:02:55;102668.69;;;21.11;100.00
59170;BME280;52474;52.236;5.114;2023-05-29T07:05:21;102671.44;;;21.97;100.00
59170;BME280;52474;52.236;5.114;2023-05-29T07:07:46;102680.63;;;22.96;100.00
59170;BME280;52474;52.236;5.114;2023-05-29T07:10:12;102674.22;;;22.72;100.00
59170;BME280;52474;52.236;5.114;2023-05-29T07:12:38;102682.81;;;22.60;100.00
59170;BME280;52474;52.236;5.114;2023-05-29T07:15:04;102658.38;;;22.94;100.00
59170;BME280;52474;52.236;5.114;2023-05-29T07:17:33;102686.88;;;23.54;100.00
59170;BME280;52474;52.236;5.114;2023-05-29T07:20:10;102666.16;;;23.94;100.00
59170;BME280;52474;52.236;5.114;2023-05-29T07:22:37;102690.53;;;24.64;100.00
59170;BME280;52474;52.236;5.114;2023-05-29T07:25:04;102693.72;;;24.91;99.76
59170;BME280;52474;52.236;5.114;2023-05-29T07:27:30;102697.59;;;24.74;100.00
59170;BME280;52474;52.236;5.114;2023-05-29T07:29:56;102697.19;;;22.85;100.00
59170;BME280;52474;52.236;5.114;2023-05-29T07:32:23;102680.34;;;22.32;100.00
59170;BME280;52474;52.236;5.114;2023-05-29T07:34:49;102693.94;;;21.10;100.00
59170;BME280;52474;52.236;5.114;2023-05-29T07:37:16;102695.31;;;22.18;100.00
59170;BME280;52474;52.236;5.114;2023-05-29T07:39:45;102685.03;;;24.10;100.00
59170;BME280;52474;52.236;5.114;2023-05-29T07:42:34;102694.50;;;24.77;96.56
59170;BME280;52474;52.236;5.114;2023-05-29T07:45:05;102691.56;;;23.85;100.00
59170;BME280;52474;52.236;5.114;2023-05-29T07:47:31;102689.44;;;21.18;100.00
59170;BME280;52474;52.236;5.114;2023-05-29T07:49:57;102701.75;;;22.92;100.00
59170;BME280;52474;52.236;5.114;2023-05-29T07:52:25;102685.47;;;21.05;100.00
59170;BME280;52474;52.236;5.114;2023-05-29T07:54:52;102699.09;;;20.40;100.00
59170;BME280;52474;52.236;5.114;2023-05-29T07:57:19;102670.63;;;19.25;100.00
59170;BME280;52474;52.236;5.114;2023-05-29T07:59:46;102664.78;;;21.31;100.00
59170;BME280;52474;52.236;5.114;2023-05-29T08:02:15;102698.41;;;20.83;100.00
59170;BME280;52474;52.236;5.114;2023-05-29T08:04:53;102700.56;;;24.16;100.00
59170;BME280;52474;52.236;5.114;2023-05-29T08:07:19;102685.81;;;22.48;100.00
59170;BME280;52474;52.236;5.114;2023-05-29T08:09:44;102701.47;;;23.04;100.00
59170;BME280;52474;52.236;5.114;2023-05-29T08:12:10;102699.22;;;25.44;96.19
59170;BME280;52474;52.236;5.114;2023-05-29T08:14:36;102709.78;;;25.16;90.61
59170;BME280;52474;52.236;5.114;2023-05-29T08:17:03;102709.09;;;24.36;97.90
59170;BME280;52474;52.236;5.114;2023-05-29T08:19:28;102703.91;;;23.63;100.00
59170;BME280;52474;52.236;5.114;2023-05-29T08:21:54;102710.59;;;22.44;100.00
59170;BME280;52474;52.236;5.114;2023-05-29T08:24:19;102711.78;;;22.41;100.00
59170;BME280;52474;52.236;5.114;2023-05-29T08:26:45;102695.03;;;23.21;100.00
59170;BME280;52474;52.236;5.114;2023-05-29T08:29:11;102683.69;;;25.15;92.78
59170;BME280;52474;52.236;5.114;2023-05-29T08:31:36;102713.25;;;23.35;95.33
59170;BME280;52474;52.236;5.114;2023-05-29T08:34:02;102710.94;;;23.16;100.00
59170;BME280;52474;52.236;5.114;2023-05-29T08:36:28;102708.84;;;23.43;100.00
59170;BME280;52474;52.236;5.114;2023-05-29T08:38:54;102698.09;;;24.38;100.00
59170;BME280;52474;52.236;5.114;2023-05-29T08:44:33;102695.25;;;26.35;84.74
59170;BME280;52474;52.236;5.114;2023-05-29T08:47:02;102690.91;;;27.42;80.42
59170;BME280;52474;52.236;5.114;2023-05-29T08:49:41;102688.34;;;26.33;79.16
59170;BME280;52474;52.236;5.114;2023-05-29T08:52:15;102705.38;;;26.78;78.89
59170;BME280;52474;52.236;5.114;2023-05-29T08:54:42;102708.28;;;27.19;77.21
59170;BME280;52474;52.236;5.114;2023-05-29T08:57:10;102708.94;;;26.79;80.54
59170;BME280;52474;52.236;5.114;2023-05-29T08:59:36;102708.53;;;26.09;84.59
59170;BME280;52474;52.236;5.114;2023-05-29T09:02:04;102705.41;;;26.27;83.17
59170;BME280;52474;52.236;5.114;2023-05-29T09:04:31;102708.22;;;26.19;80.64
59170;BME280;52474;52.236;5.114;2023-05-29T09:06:57;102713.56;;;25.67;84.13
59170;BME280;52474;52.236;5.114;2023-05-29T09:09:25;102700.09;;;25.21;85.08
59170;BME280;52474;52.236;5.114;2023-05-29T09:11:53;102715.94;;;26.00;80.25
59170;BME280;52474;52.236;5.114;2023-05-29T09:14:38;102720.28;;;25.19;87.12
59170;BME280;52474;52.236;5.114;2023-05-29T09:17:05;102708.53;;;26.45;79.45
59170;BME280;52474;52.236;5.114;2023-05-29T09:19:32;102685.28;;;26.06;80.58
59170;BME280;52474;52.236;5.114;2023-05-29T09:22:03;102713.75;;;27.05;78.18
59170;BME280;52474;52.236;5.114;2023-05-29T09:24:31;102709.91;;;26.71;79.36
59170;BME280;52474;52.236;5.114;2023-05-29T09:26:59;102691.19;;;26.61;76.79
59170;BME280;52474;52.236;5.114;2023-05-29T09:29:24;102707.59;;;26.17;80.05
59170;BME280;52474;52.236;5.114;2023-05-29T09:31:50;102691.47;;;26.88;78.08
59170;BME280;52474;52.236;5.114;2023-05-29T09:34:16;102701.63;;;27.50;76.90
59170;BME280;52474;52.236;5.114;2023-05-29T09:36:42;102695.22;;;27.36;75.30
59170;BME280;52474;52.236;5.114;2023-05-29T09:39:07;102703.03;;;27.46;78.01
59170;BME280;52474;52.236;5.114;2023-05-29T09:41:43;102709.97;;;26.77;77.13
59170;BME280;52474;52.236;5.114;2023-05-29T09:44:13;102702.81;;;27.41;79.00
59170;BME280;52474;52.236;5.114;2023-05-29T09:46:42;102711.88;;;26.11;82.85
59170;BME280;52474;52.236;5.114;2023-05-29T09:49:12;102700.88;;;27.13;81.94
59170;BME280;52474;52.236;5.114;2023-05-29T09:51:38;102681.94;;;26.98;82.58
59170;BME280;52474;52.236;5.114;2023-05-29T09:54:17;102693.66;;;27.21;82.26
59170;BME280;52474;52.236;5.114;2023-05-29T09:56:44;102691.25;;;27.67;78.55
59170;BME280;52474;52.236;5.114;2023-05-29T09:59:16;102707.09;;;25.83;83.58
59170;BME280;52474;52.236;5.114;2023-05-29T10:01:44;102705.44;;;25.97;87.65
59170;BME280;52474;52.236;5.114;2023-05-29T10:04:10;102689.72;;;25.92;85.77
59170;BME280;52474;52.236;5.114;2023-05-29T10:06:37;102699.81;;;26.50;86.71
59170;BME280;52474;52.236;5.114;2023-05-29T10:09:08;102706.34;;;26.92;81.84
59170;BME280;52474;52.236;5.114;2023-05-29T10:11:37;102689.09;;;27.56;78.52
59170;BME280;52474;52.236;5.114;2023-05-29T10:14:09;102692.50;;;26.87;79.00
59170;BME280;52474;52.236;5.114;2023-05-29T10:16:42;102688.81;;;28.20;77.69
59170;BME280;52474;52.236;5.114;2023-05-29T10:19:13;102686.22;;;27.14;78.42
59170;BME280;52474;52.236;5.114;2023-05-29T10:21:42;102693.34;;;27.65;78.17
59170;BME280;52474;52.236;5.114;2023-05-29T10:24:10;102674.88;;;27.89;73.56
59170;BME280;52474;52.236;5.114;2023-05-29T10:26:39;102685.00;;;27.17;80.15
59170;BME280;52474;52.236;5.114;2023-05-29T10:31:43;102679.56;;;25.71;89.07
59170;BME280;52474;52.236;5.114;2023-05-29T10:34:27;102658.19;;;26.64;83.06
59170;BME280;52474;52.236;5.114;2023-05-29T10:39:46;102658.53;;;27.26;78.04
59170;BME280;52474;52.236;5.114;2023-05-29T10:42:49;102683.66;;;27.28;81.62
59170;BME280;52474;52.236;5.114;2023-05-29T10:50:55;102675.50;;;24.54;100.00
59170;BME280;52474;52.236;5.114;2023-05-29T10:53:31;102657.94;;;23.63;100.00
59170;BME280;52474;52.236;5.114;2023-05-29T10:55:59;102685.38;;;23.43;100.00
59170;BME280;52474;52.236;5.114;2023-05-29T10:58:25;102678.47;;;24.05;100.00
59170;BME280;52474;52.236;5.114;2023-05-29T11:00:53;102687.75;;;23.30;100.00
59170;BME280;52474;52.236;5.114;2023-05-29T11:03:26;102663.44;;;23.94;100.00
59170;BME280;52474;52.236;5.114;2023-05-29T11:06:02;102685.09;;;24.64;100.00
59170;BME280;52474;52.236;5.114;2023-05-29T11:11:02;102690.00;;;24.69;100.00
59170;BME280;52474;52.236;5.114;2023-05-29T11:13:33;102687.09;;;25.17;100.00
59170;BME280;52474;52.236;5.114;2023-05-29T11:16:12;102679.28;;;25.81;97.10
59170;BME280;52474;52.236;5.114;2023-05-29T11:18:42;102672.31;;;25.72;99.90
59170;BME280;52474;52.236;5.114;2023-05-29T11:24:24;102688.22;;;24.99;100.00
59170;BME280;52474;52.236;5.114;2023-05-29T11:26:54;102684.78;;;25.05;100.00
59170;BME280;52474;52.236;5.114;2023-05-29T11:29:26;102667.69;;;25.05;99.27
59170;BME280;52474;52.236;5.114;2023-05-29T11:31:58;102671.41;;;25.42;98.17
59170;BME280;52474;52.236;5.114;2023-05-29T11:34:28;102675.16;;;25.26;97.64
59170;BME280;52474;52.236;5.114;2023-05-29T11:36:57;102681.31;;;25.35;96.41
59170;BME280;52474;52.236;5.114;2023-05-29T11:39:23;102663.97;;;26.03;96.01
59170;BME280;52474;52.236;5.114;2023-05-29T11:41:50;102667.59;;;26.47;90.92
59170;BME280;52474;52.236;5.114;2023-05-29T11:44:17;102680.28;;;25.21;100.00
59170;BME280;52474;52.236;5.114;2023-05-29T11:46:43;102672.50;;;24.95;100.00
59170;BME280;52474;52.236;5.114;2023-05-29T11:49:09;102673.59;;;24.62;100.00
59170;BME280;52474;52.236;5.114;2023-05-29T11:51:34;102689.63;;;24.49;100.00
59170;BME280;52474;52.236;5.114;2023-05-29T11:54:00;102687.44;;;23.97;100.00
59170;BME280;52474;52.236;5.114;2023-05-29T11:56:27;102691.72;;;24.85;100.00
59170;BME280;52474;52.236;5.114;2023-05-29T11:58:55;102691.16;;;24.04;100.00
59170;BME280;52474;52.236;5.114;2023-05-29T12:01:23;102688.00;;;24.32;100.00
59170;BME280;52474;52.236;5.114;2023-05-29T12:03:50;102691.66;;;23.11;100.00
59170;BME280;52474;52.236;5.114;2023-05-29T12:06:30;102696.13;;;22.61;100.00
59170;BME280;52474;52.236;5.114;2023-05-29T12:08:56;102697.19;;;21.83;100.00
59170;BME280;52474;52.236;5.114;2023-05-29T12:11:24;102670.09;;;21.67;100.00
59170;BME280;52474;52.236;5.114;2023-05-29T12:14:00;102691.31;;;21.88;100.00
59170;BME280;52474;52.236;5.114;2023-05-29T12:16:27;102693.00;;;22.32;100.00
59170;BME280;52474;52.236;5.114;2023-05-29T12:18:54;102668.66;;;21.47;100.00
59170;BME280;52474;52.236;5.114;2023-05-29T12:21:21;102682.94;;;21.73;100.00
59170;BME280;52474;52.236;5.114;2023-05-29T12:23:48;102688.16;;;20.87;100.00
59170;BME280;52474;52.236;5.114;2023-05-29T12:26:14;102682.41;;;22.38;100.00
59170;BME280;52474;52.236;5.114;2023-05-29T12:28:48;102670.59;;;21.97;100.00
59170;BME280;52474;52.236;5.114;2023-05-29T12:31:26;102677.66;;;22.32;100.00
59170;BME280;52474;52.236;5.114;2023-05-29T12:33:53;102672.84;;;22.60;100.00
59170;BME280;52474;52.236;5.114;2023-05-29T12:36:18;102676.47;;;21.92;100.00
59170;BME280;52474;52.236;5.114;2023-05-29T12:58:46;102657.63;;;22.59;100.00
59170;BME280;52474;52.236;5.114;2023-05-29T13:01:12;102663.31;;;22.23;100.00
59170;BME280;52474;52.236;5.114;2023-05-29T13:03:41;102673.25;;;21.36;100.00
59170;BME280;52474;52.236;5.114;2023-05-29T13:06:07;102662.53;;;20.65;100.00
59170;BME280;52474;52.236;5.114;2023-05-29T13:08:32;102692.78;;;21.12;100.00
59170;BME280;52474;52.236;5.114;2023-05-29T13:10:58;102679.56;;;21.45;100.00
59170;BME280;52474;52.236;5.114;2023-05-29T13:13:24;102675.84;;;22.49;100.00
59170;BME280;52474;52.236;5.114;2023-05-29T13:15:50;102677.72;;;22.57;100.00
59170;BME280;52474;52.236;5.114;2023-05-29T13:18:15;102669.41;;;21.91;100.00
59170;BME280;52474;52.236;5.114;2023-05-29T13:20:41;102672.22;;;21.55;100.00
59170;BME280;52474;52.236;5.114;2023-05-29T13:23:06;102694.84;;;20.65;100.00
59170;BME280;52474;52.236;5.114;2023-05-29T13:25:34;102682.97;;;20.57;100.00
59170;BME280;52474;52.236;5.114;2023-05-29T13:28:00;102684.06;;;20.19;100.00
59170;BME280;52474;52.236;5.114;2023-05-29T13:30:26;102669.53;;;20.30;100.00
59170;BME280;52474;52.236;5.114;2023-05-29T13:32:52;102681.53;;;20.99;100.00